createdAt,value
2018-04-26T03:22:10.202Z,1004.65
2018-04-26T03:23:10.205Z,1004.60
2018-04-26T03:24:10.192Z,1004.71
2018-04-26T03:25:10.183Z,1004.73
2018-04-26T03:26:10.166Z,1004.71
2018-04-26T03:27:10.160Z,1004.68
2018-04-26T03:28:10.155Z,1004.65
2018-04-26T03:29:10.146Z,1004.66
2018-04-26T03:30:10.144Z,1004.74
2018-04-26T03:31:10.171Z,1004.72
2018-04-26T03:32:10.151Z,1004.69
2018-04-26T03:33:10.149Z,1004.68
2018-04-26T03:34:10.132Z,1004.72
2018-04-26T03:35:18.885Z,1004.74
2018-04-26T03:37:03.572Z,1004.75
2018-04-26T03:38:03.543Z,1004.78
2018-04-26T03:39:56.978Z,1004.79
2018-04-26T03:40:56.934Z,1004.83
2018-04-26T03:41:56.936Z,1004.88
2018-04-26T03:42:56.933Z,1004.94
2018-04-26T03:43:56.951Z,1004.94
2018-04-26T03:44:56.926Z,1004.96
2018-04-26T03:45:56.932Z,1005.00
2018-04-26T03:46:56.941Z,1004.99
2018-04-26T03:47:56.932Z,1005.01
2018-04-26T03:48:56.943Z,1005.04
2018-04-26T03:49:56.941Z,1005.07
2018-04-26T03:50:56.919Z,1005.08
2018-04-26T03:51:56.915Z,1005.10
2018-04-26T03:52:56.912Z,1005.09
2018-04-26T03:53:56.904Z,1005.08
2018-04-26T03:54:56.910Z,1005.10
2018-04-26T03:55:56.905Z,1005.07
2018-04-26T03:56:56.923Z,1005.09
2018-04-26T03:57:56.900Z,1005.10
2018-04-26T04:00:17.952Z,1005.11
2018-04-26T04:01:17.952Z,1005.07
2018-04-26T04:02:17.939Z,1005.07
2018-04-26T04:03:17.930Z,1005.07
2018-04-26T04:04:17.938Z,1005.05
2018-04-26T04:05:18.020Z,1005.05
2018-04-26T04:06:17.927Z,1005.06
2018-04-26T04:07:17.929Z,1005.05
2018-04-26T04:08:17.929Z,1005.06
2018-04-26T04:09:17.935Z,1005.07
2018-04-26T04:10:17.921Z,1005.05
2018-04-26T04:11:17.919Z,1005.05
2018-04-26T04:12:17.919Z,1005.08
2018-04-26T04:13:17.919Z,1005.11
2018-04-26T04:14:17.907Z,1005.14
2018-04-26T04:15:17.904Z,1005.14
2018-04-26T04:16:17.915Z,1005.16
2018-04-26T04:17:17.929Z,1005.15
2018-04-26T04:18:17.914Z,1005.21
2018-04-26T04:19:17.908Z,1005.22
2018-04-26T04:20:17.906Z,1005.23
2018-04-26T04:21:17.921Z,1005.27
2018-04-26T04:22:17.892Z,1005.22
2018-04-26T04:23:17.889Z,1005.19
2018-04-26T04:24:17.907Z,1005.20
2018-04-26T04:25:17.895Z,1005.21
2018-04-26T04:26:17.886Z,1005.20
2018-04-26T04:27:17.898Z,1005.20
2018-04-26T04:28:17.889Z,1005.23
2018-04-26T04:29:17.894Z,1005.20
2018-04-26T04:30:17.905Z,1005.23
2018-04-26T04:31:17.883Z,1005.23
2018-04-26T04:32:17.877Z,1005.25
2018-04-26T04:33:17.912Z,1005.26
2018-04-26T04:34:17.869Z,1005.30
2018-04-26T04:35:17.949Z,1005.25
2018-04-26T04:36:17.866Z,1005.28
2018-04-26T04:37:17.861Z,1005.32
2018-04-26T04:38:17.865Z,1005.31
2018-04-26T04:39:17.865Z,1005.30
2018-04-26T04:40:17.886Z,1005.33
2018-04-26T04:41:17.860Z,1005.38
2018-04-26T04:42:17.888Z,1005.40
2018-04-26T04:43:17.847Z,1005.35
2018-04-26T04:44:17.846Z,1005.36
2018-04-26T04:45:17.958Z,1005.35
2018-04-26T04:46:17.842Z,1005.38
2018-04-26T04:47:17.841Z,1005.39
2018-04-26T04:48:17.849Z,1005.35
2018-04-26T04:49:17.842Z,1005.37
2018-04-26T04:50:17.853Z,1005.38
2018-04-26T04:51:17.849Z,1005.42
2018-04-26T04:52:17.849Z,1005.44
2018-04-26T04:53:17.846Z,1005.49
2018-04-26T04:54:17.851Z,1005.47
2018-04-26T04:55:17.848Z,1005.51
2018-04-26T04:56:17.831Z,1005.55
2018-04-26T04:57:17.829Z,1005.47
2018-04-26T04:58:17.839Z,1005.45
2018-04-26T04:59:17.840Z,1005.47
2018-04-26T05:00:17.835Z,1005.50
2018-04-26T05:01:17.850Z,1005.44
2018-04-26T05:02:17.870Z,1005.44
2018-04-26T05:03:17.850Z,1005.49
2018-04-26T05:04:17.851Z,1005.52
2018-04-26T05:05:17.860Z,1005.54
2018-04-26T05:06:26.500Z,1005.58
2018-04-26T05:08:11.348Z,1005.68
2018-04-26T05:09:11.424Z,1005.70
2018-04-26T05:10:11.305Z,1005.77
2018-04-26T05:11:11.344Z,1005.72
2018-04-26T05:12:11.281Z,1005.79
2018-04-26T05:13:11.361Z,1005.81
2018-04-26T05:14:11.293Z,1005.76
2018-04-26T05:15:11.332Z,1005.86
2018-04-26T05:16:11.476Z,1005.89
2018-04-26T05:17:11.523Z,1005.85
2018-04-26T05:18:11.325Z,1005.79
2018-04-26T05:19:11.339Z,1005.93
2018-04-26T05:20:11.406Z,1005.94
2018-04-26T05:21:11.343Z,1005.99
2018-04-26T05:22:11.427Z,1005.97
2018-04-26T05:23:11.375Z,1006.03
2018-04-26T05:24:11.416Z,1006.03
2018-04-26T05:25:11.376Z,1006.08
2018-04-26T05:26:11.424Z,1006.12
2018-04-26T05:27:11.415Z,1006.16
2018-04-26T05:28:11.444Z,1006.22
2018-04-26T05:29:11.441Z,1006.28
2018-04-26T05:30:11.456Z,1006.29
2018-04-26T05:31:11.480Z,1006.34
2018-04-26T05:32:11.452Z,1006.38
2018-04-26T05:33:11.488Z,1006.30
2018-04-26T05:34:11.496Z,1006.31
2018-04-26T05:35:11.497Z,1006.39
2018-04-26T05:36:11.500Z,1006.36
2018-04-26T05:37:11.502Z,1006.20
2018-04-26T05:38:11.509Z,1006.15
2018-04-26T05:39:11.527Z,1006.12
2018-04-26T05:40:11.554Z,1006.22
2018-04-26T05:41:11.532Z,1006.25
2018-04-26T05:42:11.563Z,1006.20
2018-04-26T05:43:11.571Z,1006.25
2018-04-26T05:44:11.575Z,1006.27
2018-04-26T05:45:11.573Z,1006.25
2018-04-26T05:46:11.931Z,1006.26
2018-04-26T05:47:11.611Z,1006.24
2018-04-26T05:48:11.593Z,1006.27
2018-04-26T05:49:11.628Z,1006.25
2018-04-26T05:50:11.617Z,1006.27
2018-04-26T05:51:11.636Z,1006.26
2018-04-26T05:52:11.632Z,1006.31
2018-04-26T05:53:11.635Z,1006.24
2018-04-26T05:54:12.251Z,1006.23
2018-04-26T05:55:11.646Z,1006.34
2018-04-26T05:56:11.642Z,1006.27
2018-04-26T05:57:11.642Z,1006.27
2018-04-26T05:58:11.659Z,1006.23
2018-04-26T05:59:11.695Z,1006.32
2018-04-26T06:00:11.669Z,1006.26
2018-04-26T06:01:11.656Z,1006.32
2018-04-26T06:02:11.645Z,1006.35
2018-04-26T06:03:11.644Z,1006.39
2018-04-26T06:04:11.684Z,1006.44
2018-04-26T06:05:11.645Z,1006.47
2018-04-26T06:06:11.649Z,1006.52
2018-04-26T06:07:11.651Z,1006.58
2018-04-26T06:08:11.669Z,1006.52
2018-04-26T06:09:11.660Z,1006.55
2018-04-26T06:10:11.658Z,1006.55
2018-04-26T06:11:11.675Z,1006.58
2018-04-26T06:12:11.656Z,1006.53
2018-04-26T06:13:11.666Z,1006.47
2018-04-26T06:14:11.689Z,1006.54
2018-04-26T06:15:11.664Z,1006.58
2018-04-26T06:16:11.670Z,1006.52
2018-04-26T06:17:11.745Z,1006.61
2018-04-26T06:18:11.684Z,1006.54
2018-04-26T06:19:11.654Z,1006.58
2018-04-26T06:20:11.649Z,1006.62
2018-04-26T06:21:11.647Z,1006.60
2018-04-26T06:22:11.654Z,1006.54
2018-04-26T06:23:11.672Z,1006.61
2018-04-26T06:24:11.674Z,1006.62
2018-04-26T06:25:11.706Z,1006.66
2018-04-26T06:26:11.652Z,1006.67
2018-04-26T06:27:11.642Z,1006.66
2018-04-26T06:28:11.650Z,1006.62
2018-04-26T06:29:11.649Z,1006.63
2018-04-26T06:30:11.651Z,1006.68
2018-04-26T06:31:11.746Z,1006.69
2018-04-26T06:32:11.661Z,1006.75
2018-04-26T06:33:20.323Z,1006.72
2018-04-26T06:35:05.195Z,1006.75
2018-04-26T06:36:05.039Z,1006.86
2018-04-26T06:37:05.041Z,1006.87
2018-04-26T06:38:05.061Z,1006.80
2018-04-26T06:39:05.063Z,1006.79
2018-04-26T06:40:05.017Z,1006.85
2018-04-26T06:41:05.025Z,1006.82
2018-04-26T06:42:05.021Z,1006.79
2018-04-26T06:43:05.023Z,1006.82
2018-04-26T06:44:05.012Z,1006.87
2018-04-26T06:45:14.742Z,1006.88
2018-04-26T06:46:58.470Z,1006.86
2018-04-26T06:47:58.424Z,1006.88
2018-04-26T06:48:58.421Z,1006.82
2018-04-26T06:49:58.438Z,1006.90
2018-04-26T06:50:58.445Z,1006.85
2018-04-26T06:53:20.513Z,1006.83
2018-04-26T06:54:20.535Z,1006.91
2018-04-26T06:55:20.484Z,1006.88
2018-04-26T06:56:20.482Z,1006.85
2018-04-26T06:57:20.485Z,1006.87
2018-04-26T06:58:20.481Z,1006.87
2018-04-26T06:59:20.477Z,1006.79
2018-04-26T07:00:20.538Z,1006.82
2018-04-26T07:01:20.486Z,1006.83
2018-04-26T07:02:20.486Z,1006.87
2018-04-26T07:03:20.496Z,1006.87
2018-04-26T07:04:20.467Z,1006.91
2018-04-26T07:05:20.471Z,1006.88
2018-04-26T07:06:20.467Z,1006.84
2018-04-26T07:07:20.461Z,1006.85
2018-04-26T07:08:20.463Z,1006.85
2018-04-26T07:09:20.492Z,1006.85
2018-04-26T07:10:21.994Z,1006.86
2018-04-26T07:11:20.457Z,1006.88
2018-04-26T07:12:20.457Z,1006.83
2018-04-26T07:13:20.453Z,1006.86
2018-04-26T07:14:20.469Z,1006.88
2018-04-26T07:15:20.466Z,1006.91
2018-04-26T07:16:20.463Z,1006.90
2018-04-26T07:17:20.448Z,1006.89
2018-04-26T07:18:20.450Z,1006.90
2018-04-26T07:19:20.447Z,1006.89
2018-04-26T07:20:29.109Z,1006.91
2018-04-26T07:22:21.550Z,1006.96
2018-04-26T07:23:22.519Z,1006.89
2018-04-26T07:25:07.271Z,1006.94
2018-04-26T07:26:07.271Z,1006.90
2018-04-26T07:27:07.234Z,1006.97
2018-04-26T07:28:07.255Z,1007.02
2018-04-26T07:29:07.251Z,1006.94
2018-04-26T07:30:07.251Z,1007.01
2018-04-26T07:31:07.254Z,1007.09
2018-04-26T07:32:07.226Z,1007.07
2018-04-26T07:33:07.224Z,1007.08
2018-04-26T07:34:07.228Z,1007.08
2018-04-26T07:35:07.225Z,1006.98
2018-04-26T07:36:07.244Z,1007.04
2018-04-26T07:37:07.219Z,1007.13
2018-04-26T07:38:07.233Z,1007.10
2018-04-26T07:39:07.219Z,1007.11
2018-04-26T07:40:07.221Z,1007.12
2018-04-26T07:41:07.218Z,1007.14
2018-04-26T07:42:07.236Z,1007.18
2018-04-26T07:43:07.222Z,1007.17
2018-04-26T07:44:07.212Z,1007.15
2018-04-26T07:45:07.219Z,1007.18
2018-04-26T07:46:07.209Z,1007.17
2018-04-26T07:47:07.213Z,1007.18
2018-04-26T07:48:07.211Z,1007.13
2018-04-26T07:49:07.239Z,1007.19
2018-04-26T07:50:07.211Z,1007.19
2018-04-26T07:51:07.217Z,1007.18
2018-04-26T07:52:07.216Z,1007.17
2018-04-26T07:53:08.849Z,1007.20
2018-04-26T07:54:07.241Z,1007.16
2018-04-26T07:55:07.204Z,1007.15
2018-04-26T07:56:07.228Z,1007.18
2018-04-26T07:57:07.249Z,1007.15
2018-04-26T07:58:07.209Z,1007.18
2018-04-26T07:59:07.193Z,1007.20
2018-04-26T08:00:07.200Z,1007.17
2018-04-26T08:01:07.194Z,1007.18
2018-04-26T08:02:07.195Z,1007.20
2018-04-26T08:03:07.198Z,1007.24
2018-04-26T08:04:07.200Z,1007.21
2018-04-26T08:05:15.853Z,1007.20
2018-04-26T08:07:00.608Z,1007.17
2018-04-26T08:08:00.589Z,1007.17
2018-04-26T08:09:00.594Z,1007.24
2018-04-26T08:10:00.586Z,1007.23
2018-04-26T08:11:00.591Z,1007.26
2018-04-26T08:12:00.592Z,1007.28
2018-04-26T08:13:00.592Z,1007.31
2018-04-26T08:14:00.602Z,1007.29
2018-04-26T08:15:00.612Z,1007.30
2018-04-26T08:16:00.596Z,1007.31
2018-04-26T08:17:00.586Z,1007.32
2018-04-26T08:18:00.588Z,1007.28
2018-04-26T08:19:00.590Z,1007.26
2018-04-26T08:20:00.585Z,1007.29
2018-04-26T08:21:00.588Z,1007.25
2018-04-26T08:22:00.583Z,1007.31
2018-04-26T08:23:00.593Z,1007.30
2018-04-26T08:24:00.593Z,1007.26
2018-04-26T08:25:00.655Z,1007.28
2018-04-26T08:26:00.587Z,1007.27
2018-04-26T08:27:00.585Z,1007.30
2018-04-26T08:28:00.580Z,1007.28
2018-04-26T08:29:00.579Z,1007.31
2018-04-26T08:30:00.579Z,1007.31
2018-04-26T08:31:00.616Z,1007.33
2018-04-26T08:32:00.629Z,1007.37
2018-04-26T08:33:00.581Z,1007.37
2018-04-26T08:34:00.580Z,1007.39
2018-04-26T08:35:00.575Z,1007.33
2018-04-26T08:36:00.579Z,1007.36
2018-04-26T08:37:00.589Z,1007.33
2018-04-26T08:38:00.585Z,1007.35
2018-04-26T08:39:00.600Z,1007.33
2018-04-26T08:40:00.580Z,1007.33
2018-04-26T08:41:00.601Z,1007.26
2018-04-26T08:42:00.571Z,1007.26
2018-04-26T08:43:00.600Z,1007.30
2018-04-26T08:44:00.600Z,1007.26
2018-04-26T08:45:00.570Z,1007.28
2018-04-26T08:46:00.571Z,1007.31
2018-04-26T08:47:00.563Z,1007.26
2018-04-26T08:48:00.564Z,1007.18
2018-04-26T08:49:00.562Z,1007.18
2018-04-26T08:50:00.563Z,1007.25
2018-04-26T08:51:00.560Z,1007.22
2018-04-26T08:52:00.560Z,1007.23
2018-04-26T08:53:00.560Z,1007.21
2018-04-26T08:54:00.564Z,1007.22
2018-04-26T08:55:00.591Z,1007.23
2018-04-26T08:56:00.564Z,1007.15
2018-04-26T08:57:00.559Z,1007.10
2018-04-26T08:58:00.600Z,1007.10
2018-04-26T08:59:00.552Z,1007.10
2018-04-26T09:00:00.547Z,1007.15
2018-04-26T09:01:00.546Z,1007.12
2018-04-26T09:02:00.551Z,1007.17
2018-04-26T09:03:00.561Z,1007.12
2018-04-26T09:04:00.566Z,1007.18
2018-04-26T09:05:00.543Z,1007.22
2018-04-26T09:06:00.553Z,1007.28
2018-04-26T09:07:00.558Z,1007.17
2018-04-26T09:08:00.549Z,1007.26
2018-04-26T09:09:00.552Z,1007.26
2018-04-26T09:10:00.535Z,1007.25
2018-04-26T09:11:00.588Z,1007.22
2018-04-26T09:12:00.554Z,1007.25
2018-04-26T09:13:00.528Z,1007.22
2018-04-26T09:14:00.535Z,1007.19
2018-04-26T09:15:00.538Z,1007.13
2018-04-26T09:16:00.665Z,1007.08
2018-04-26T09:17:00.526Z,1007.14
2018-04-26T09:18:00.524Z,1007.15
2018-04-26T09:19:00.551Z,1007.16
2018-04-26T09:20:00.530Z,1007.17
2018-04-26T09:21:00.551Z,1007.24
2018-04-26T09:22:00.565Z,1007.26
2018-04-26T09:23:00.521Z,1007.24
2018-04-26T09:24:00.536Z,1007.25
2018-04-26T09:25:00.520Z,1007.27
2018-04-26T09:26:00.520Z,1007.31
2018-04-26T09:27:00.569Z,1007.31
2018-04-26T09:28:00.522Z,1007.34
2018-04-26T09:29:00.552Z,1007.31
2018-04-26T09:30:00.543Z,1007.31
2018-04-26T09:31:00.520Z,1007.31
2018-04-26T09:32:00.515Z,1007.29
2018-04-26T09:33:00.540Z,1007.35
2018-04-26T09:34:00.527Z,1007.33
2018-04-26T09:35:00.542Z,1007.33
2018-04-26T09:36:00.523Z,1007.32
2018-04-26T09:37:00.519Z,1007.34
2018-04-26T09:38:00.551Z,1007.32
2018-04-26T09:39:00.511Z,1007.24
2018-04-26T09:40:00.515Z,1007.26
2018-04-26T09:41:00.514Z,1007.31
2018-04-26T09:42:00.519Z,1007.27
2018-04-26T09:43:00.512Z,1007.30
2018-04-26T09:44:00.522Z,1007.29
2018-04-26T09:45:00.525Z,1007.29
2018-04-26T09:46:00.518Z,1007.23
2018-04-26T09:47:00.513Z,1007.36
2018-04-26T09:48:00.582Z,1007.35
2018-04-26T09:49:00.509Z,1007.33
2018-04-26T09:50:00.550Z,1007.34
2018-04-26T09:51:00.511Z,1007.24
2018-04-26T09:52:00.538Z,1007.33
2018-04-26T09:53:00.513Z,1007.33
2018-04-26T09:54:00.509Z,1007.37
2018-04-26T09:55:00.505Z,1007.37
2018-04-26T09:56:09.172Z,1007.35
2018-04-26T09:57:53.928Z,1007.28
2018-04-26T09:58:53.893Z,1007.31
2018-04-26T09:59:53.897Z,1007.31
2018-04-26T10:00:53.897Z,1007.31
2018-04-26T10:01:53.917Z,1007.34
